Time;durP1;ratioP1;P1;durP2;ratioP2;P2;SDS_P1;SDS_P2;PMS_P1;PMS_P2;Temp;Humidity;BMP_temperature;BMP_pressure;BME280_temperature;BME280_humidity;BME280_pressure;Samples;Min_cycle;Max_cycle;Signal;HPM_P1;HPM_P2
2024/01/23 00:00:41;;;;;;;21.23;3.60;;;7.10;99.90;;;;;;5063000;28;20043;-69
2024/01/23 00:03:06;;;;;;;26.27;3.88;;;7.10;99.90;;;;;;5063672;28;20029;-70
2024/01/23 00:05:32;;;;;;;31.85;4.32;;;7.10;99.90;;;;;;5063142;28;21576;-70
2024/01/23 00:07:58;;;;;;;25.42;3.42;;;7.10;99.90;;;;;;5063255;28;20056;-69
2024/01/23 00:10:23;;;;;;;21.77;3.65;;;7.10;99.90;;;;;;5063465;28;20045;-69
2024/01/23 00:12:49;;;;;;;21.92;3.33;;;7.10;99.90;;;;;;5063000;28;20024;-72
2024/01/23 00:15:15;;;;;;;21.67;3.35;;;7.10;99.90;;;;;;5063297;28;20373;-69
2024/01/23 00:17:40;;;;;;;24.80;3.58;;;7.10;99.90;;;;;;5063416;28;20021;-70
2024/01/23 00:20:07;;;;;;;23.17;3.33;;;7.20;99.90;;;;;;5060430;28;20036;-69
2024/01/23 00:22:33;;;;;;;19.83;3.22;;;7.20;99.90;;;;;;5063270;28;20036;-69
2024/01/23 00:24:59;;;;;;;25.70;3.85;;;7.20;99.90;;;;;;5062440;28;20029;-67
2024/01/23 00:27:25;;;;;;;10.57;1.83;;;7.10;99.90;;;;;;5060267;28;20112;-67
2024/01/23 00:29:51;;;;;;;18.35;3.00;;;6.80;99.90;;;;;;5061602;28;20102;-68
2024/01/23 00:32:17;;;;;;;11.38;2.00;;;6.30;99.90;;;;;;5060165;28;20079;-70
2024/01/23 00:34:42;;;;;;;10.73;1.65;;;5.90;99.90;;;;;;5061011;28;20024;-68
2024/01/23 00:37:08;;;;;;;10.57;1.58;;;5.70;99.90;;;;;;5062329;28;20039;-67
2024/01/23 00:39:37;;;;;;;10.52;1.88;;;5.50;99.90;;;;;;5062798;28;20033;-69
2024/01/23 00:42:05;;;;;;;12.32;1.60;;;5.40;99.90;;;;;;5061135;28;20032;-67
2024/01/23 00:44:30;;;;;;;12.95;1.95;;;5.30;99.90;;;;;;5061282;28;20473;-69
2024/01/23 00:46:56;;;;;;;16.17;2.15;;;5.40;99.90;;;;;;5061934;28;20025;-67
2024/01/23 00:49:22;;;;;;;17.15;2.03;;;5.30;99.90;;;;;;5061892;28;20021;-67
2024/01/23 00:51:47;;;;;;;14.65;2.67;;;5.20;99.90;;;;;;5062428;28;20041;-68
2024/01/23 00:54:13;;;;;;;16.15;2.20;;;5.20;99.90;;;;;;5061903;28;20099;-66
2024/01/23 00:56:41;;;;;;;18.33;3.15;;;5.20;99.90;;;;;;5061353;28;20397;-67
2024/01/23 00:59:10;;;;;;;19.42;2.58;;;5.30;99.90;;;;;;5062034;28;20049;-68
2024/01/23 01:01:36;;;;;;;13.88;2.13;;;5.30;99.90;;;;;;5061831;28;20104;-66
2024/01/23 01:06:57;;;;;;;11.57;1.80;;;5.10;99.90;;;;;;1388659;27;20051;-77
2024/01/23 01:09:26;;;;;;;9.93;1.98;;;5.10;99.90;;;;;;4952025;28;20039;-74
2024/01/23 01:11:52;;;;;;;11.93;1.88;;;5.10;99.90;;;;;;4953669;28;20039;-78
2024/01/23 01:14:17;;;;;;;13.15;2.55;;;5.00;99.90;;;;;;4953845;28;20020;-79
2024/01/23 01:16:43;;;;;;;18.88;2.20;;;5.10;99.90;;;;;;4935438;29;20027;-73
2024/01/23 01:19:08;;;;;;;18.05;2.10;;;5.10;99.90;;;;;;4953639;28;20127;-72
2024/01/23 01:21:34;;;;;;;15.52;2.42;;;5.20;99.90;;;;;;4936513;28;20038;-76
2024/01/23 01:24:00;;;;;;;19.17;2.15;;;5.10;99.90;;;;;;4936599;28;20101;-76
2024/01/23 01:26:26;;;;;;;15.52;3.15;;;5.10;99.90;;;;;;4953437;28;20032;-77
2024/01/23 01:28:52;;;;;;;25.88;3.25;;;5.30;99.90;;;;;;4936399;29;20023;-76
2024/01/23 01:31:17;;;;;;;24.02;3.13;;;5.20;99.90;;;;;;4952804;28;20142;-77
2024/01/23 01:33:43;;;;;;;22.80;3.15;;;5.30;99.90;;;;;;4953385;28;20019;-77
2024/01/23 01:36:08;;;;;;;21.58;2.88;;;5.30;99.90;;;;;;4952061;29;20034;-77
2024/01/23 01:38:34;;;;;;;17.67;2.63;;;5.30;99.90;;;;;;4936002;29;20031;-73
2024/01/23 01:40:59;;;;;;;23.90;3.17;;;5.30;99.90;;;;;;4936745;29;20098;-73
2024/01/23 01:43:27;;;;;;;20.02;2.85;;;5.40;99.90;;;;;;4936161;29;20045;-75
2024/01/23 01:46:11;;;;;;;32.55;3.08;;;5.40;99.90;;;;;;4937163;29;20027;-76
2024/01/23 01:48:40;;;;;;;23.52;2.97;;;5.50;99.90;;;;;;4953904;28;20031;-75
2024/01/23 01:51:06;;;;;;;21.33;2.90;;;5.50;99.90;;;;;;4957394;28;20070;-75
2024/01/23 01:53:34;;;;;;;23.27;3.25;;;5.50;99.90;;;;;;4957567;28;20044;-73
2024/01/23 01:56:01;;;;;;;20.58;2.92;;;5.50;99.90;;;;;;4956895;28;20051;-74
2024/01/23 01:58:30;;;;;;;31.00;2.85;;;5.60;99.90;;;;;;4939286;29;20024;-75
2024/01/23 02:00:57;;;;;;;20.48;2.95;;;5.70;99.90;;;;;;4939498;29;20090;-77
2024/01/23 02:03:23;;;;;;;35.28;3.03;;;5.70;99.90;;;;;;4940293;29;20028;-74
2024/01/23 02:05:50;;;;;;;27.10;3.47;;;5.70;99.90;;;;;;4954682;28;20525;-81
2024/01/23 02:08:16;;;;;;;23.52;3.40;;;5.90;99.90;;;;;;4939412;29;20059;-76
2024/01/23 02:10:43;;;;;;;29.75;3.25;;;5.80;99.90;;;;;;4956882;28;20032;-75
2024/01/23 02:13:08;;;;;;;19.10;3.22;;;5.80;99.90;;;;;;4956581;28;20032;-75
2024/01/23 02:15:34;;;;;;;27.17;3.17;;;5.80;99.90;;;;;;4956688;28;20054;-74
2024/01/23 02:18:02;;;;;;;27.23;3.58;;;5.90;99.90;;;;;;4957018;28;20023;-75
2024/01/23 02:20:28;;;;;;;20.08;2.97;;;5.90;99.90;;;;;;4939637;29;20103;-78
2024/01/23 02:22:54;;;;;;;26.92;3.65;;;6.00;99.90;;;;;;4939353;29;20035;-80
2024/01/23 02:25:20;;;;;;;21.88;3.33;;;6.00;99.90;;;;;;4956730;28;20086;-80
2024/01/23 02:27:45;;;;;;;18.80;2.60;;;6.00;99.90;;;;;;4956825;28;20024;-77
2024/01/23 02:30:11;;;;;;;30.95;2.90;;;6.00;99.90;;;;;;4939535;28;20118;-77
2024/01/23 02:32:37;;;;;;;24.45;3.25;;;6.00;99.90;;;;;;4939279;29;20035;-73
2024/01/23 02:35:03;;;;;;;23.42;3.38;;;6.00;99.90;;;;;;4937597;29;20035;-74
2024/01/23 02:37:28;;;;;;;17.00;2.83;;;6.10;99.90;;;;;;4939883;29;20035;-75
2024/01/23 02:39:54;;;;;;;18.38;2.80;;;6.10;99.90;;;;;;4939277;29;20444;-77
2024/01/23 02:42:20;;;;;;;20.42;2.80;;;6.10;99.90;;;;;;4956187;29;20036;-75
2024/01/23 02:44:45;;;;;;;28.67;3.13;;;6.10;99.90;;;;;;4956592;28;20039;-81
2024/01/23 02:47:14;;;;;;;16.98;2.85;;;6.10;99.90;;;;;;4938958;29;20054;-77
2024/01/23 02:49:41;;;;;;;26.08;2.90;;;6.10;99.90;;;;;;4956517;28;20506;-80
2024/01/23 02:52:07;;;;;;;25.05;3.42;;;6.20;99.90;;;;;;4938913;28;20058;-74
2024/01/23 02:54:32;;;;;;;22.45;3.08;;;6.20;99.90;;;;;;4938171;29;20039;-75
2024/01/23 02:56:58;;;;;;;20.52;3.92;;;6.20;99.90;;;;;;4955742;28;20086;-77
2024/01/23 02:59:24;;;;;;;26.02;3.25;;;6.20;99.90;;;;;;4955979;29;20035;-77
2024/01/23 03:01:49;;;;;;;19.58;3.00;;;6.20;99.90;;;;;;4956318;28;20031;-77
2024/01/23 03:04:15;;;;;;;25.25;3.17;;;6.20;99.90;;;;;;4938980;29;20480;-79
2024/01/23 03:06:40;;;;;;;27.88;3.58;;;6.10;99.90;;;;;;4953501;28;20043;-75
2024/01/23 03:09:06;;;;;;;21.42;3.38;;;6.10;99.90;;;;;;4956092;28;20074;-76
2024/01/23 03:11:32;;;;;;;20.75;2.95;;;6.10;99.90;;;;;;4938882;29;20424;-75
2024/01/23 03:13:58;;;;;;;18.70;2.65;;;6.20;99.90;;;;;;4955721;28;20024;-77
2024/01/23 03:16:24;;;;;;;22.60;3.65;;;6.20;99.90;;;;;;4938894;29;20041;-79
2024/01/23 03:18:49;;;;;;;24.50;3.97;;;6.20;99.90;;;;;;4953701;28;20028;-75
2024/01/23 03:21:15;;;;;;;25.83;3.35;;;6.20;99.90;;;;;;4938072;29;20090;-78
2024/01/23 03:23:41;;;;;;;24.75;3.33;;;6.20;99.90;;;;;;4955506;29;20046;-76
2024/01/23 03:26:06;;;;;;;20.25;3.45;;;6.30;99.90;;;;;;4955560;28;20117;-77
2024/01/23 03:28:32;;;;;;;25.45;3.63;;;6.30;99.90;;;;;;4938470;29;20415;-78
2024/01/23 03:30:58;;;;;;;22.00;3.33;;;6.30;99.90;;;;;;4955652;28;20039;-78
2024/01/23 03:33:24;;;;;;;20.38;3.08;;;6.30;99.90;;;;;;4938290;28;20082;-76
2024/01/23 03:35:49;;;;;;;23.05;3.83;;;6.30;99.90;;;;;;4955720;29;20035;-79
2024/01/23 03:38:15;;;;;;;22.85;3.40;;;6.30;99.90;;;;;;4938156;29;20024;-74
2024/01/23 03:40:40;;;;;;;27.90;3.47;;;6.40;99.90;;;;;;4954377;29;20031;-76
2024/01/23 03:43:06;;;;;;;22.67;2.83;;;6.30;99.90;;;;;;4955313;28;20480;-73
2024/01/23 03:45:32;;;;;;;24.98;3.80;;;6.40;99.90;;;;;;4955625;28;20020;-73
2024/01/23 03:47:57;;;;;;;24.92;4.00;;;6.40;99.90;;;;;;4955040;28;20031;-75
2024/01/23 03:50:23;;;;;;;29.75;3.28;;;6.40;99.90;;;;;;4938043;29;20043;-75
2024/01/23 03:52:49;;;;;;;23.23;3.58;;;6.40;99.90;;;;;;4938407;28;21046;-76
2024/01/23 03:55:14;;;;;;;25.67;4.00;;;6.40;99.90;;;;;;4954929;28;20027;-75
2024/01/23 03:57:40;;;;;;;25.40;3.95;;;6.40;99.90;;;;;;4937887;28;20035;-75
2024/01/23 04:00:07;;;;;;;25.33;3.72;;;6.40;99.90;;;;;;4955325;28;20039;-75
2024/01/23 04:02:36;;;;;;;26.55;3.40;;;6.40;99.90;;;;;;4937184;29;20031;-80
2024/01/23 04:05:06;;;;;;;23.23;3.53;;;6.40;99.90;;;;;;4954623;28;20503;-78
2024/01/23 04:07:33;;;;;;;24.95;3.30;;;6.50;99.90;;;;;;4950529;28;20051;-76
2024/01/23 04:10:00;;;;;;;24.67;3.38;;;6.50;99.90;;;;;;4954690;28;20104;-77
2024/01/23 04:12:26;;;;;;;23.45;3.53;;;6.40;99.90;;;;;;4937824;29;20400;-77
2024/01/23 04:14:53;;;;;;;31.67;4.22;;;6.50;99.90;;;;;;4937655;29;20066;-77
2024/01/23 04:17:18;;;;;;;21.48;2.97;;;6.50;99.90;;;;;;4954675;29;20027;-76
2024/01/23 04:19:44;;;;;;;24.05;3.33;;;6.50;99.90;;;;;;4955011;28;20031;-75
2024/01/23 04:22:10;;;;;;;27.38;4.15;;;6.50;99.90;;;;;;4937276;29;20027;-79
2024/01/23 04:24:40;;;;;;;30.70;4.13;;;6.50;99.90;;;;;;4954323;28;20504;-77
2024/01/23 04:27:07;;;;;;;22.52;3.25;;;6.50;99.90;;;;;;4954257;28;20034;-80
2024/01/23 04:29:33;;;;;;;24.17;3.58;;;6.50;99.90;;;;;;4936846;29;20114;-76
2024/01/23 04:31:58;;;;;;;27.00;4.80;;;6.50;99.90;;;;;;4954444;28;20067;-77
2024/01/23 04:34:24;;;;;;;31.50;3.80;;;6.50;99.90;;;;;;4935195;29;20082;-80
2024/01/23 04:36:49;;;;;;;25.67;3.92;;;6.50;99.90;;;;;;4937376;29;20649;-74
2024/01/23 04:39:18;;;;;;;22.10;4.13;;;6.60;99.90;;;;;;4953496;28;20035;-75
2024/01/23 04:41:44;;;;;;;27.15;3.72;;;6.60;99.90;;;;;;4954300;29;20031;-75
2024/01/23 04:44:09;;;;;;;29.17;3.85;;;6.50;99.90;;;;;;4954066;29;20083;-75
2024/01/23 04:46:35;;;;;;;36.28;4.00;;;6.60;99.90;;;;;;4953355;28;20035;-74
2024/01/23 04:49:00;;;;;;;36.53;4.72;;;6.60;99.90;;;;;;4936473;29;20023;-75
2024/01/23 04:51:26;;;;;;;27.65;4.80;;;6.50;99.90;;;;;;4954291;28;20043;-73
2024/01/23 04:53:52;;;;;;;24.35;4.00;;;6.50;99.90;;;;;;4937068;29;20058;-75
2024/01/23 04:56:18;;;;;;;33.30;3.83;;;6.60;99.90;;;;;;4954643;29;20031;-75
2024/01/23 04:58:44;;;;;;;24.73;4.13;;;6.60;99.90;;;;;;4936088;29;20078;-72
2024/01/23 05:01:09;;;;;;;26.90;3.63;;;6.60;99.90;;;;;;4950875;28;20043;-77
2024/01/23 05:03:35;;;;;;;23.00;4.13;;;6.60;99.90;;;;;;4935695;29;20039;-78
2024/01/23 05:06:00;;;;;;;40.78;5.43;;;6.60;99.90;;;;;;4935927;29;20125;-75
2024/01/23 05:08:26;;;;;;;31.83;4.03;;;6.60;99.90;;;;;;4951824;28;20381;-74
2024/01/23 05:10:51;;;;;;;36.58;5.15;;;6.60;99.90;;;;;;4953485;29;20035;-75
2024/01/23 05:13:17;;;;;;;22.88;3.83;;;6.60;99.90;;;;;;4954280;28;20299;-73
2024/01/23 05:15:42;;;;;;;33.95;3.92;;;6.60;99.90;;;;;;4934911;29;20047;-77
2024/01/23 05:18:08;;;;;;;20.10;3.45;;;6.60;99.90;;;;;;4936673;29;20023;-73
2024/01/23 05:20:34;;;;;;;30.10;4.25;;;6.70;99.90;;;;;;4952835;28;20043;-75
2024/01/23 05:23:01;;;;;;;24.17;4.05;;;6.70;99.90;;;;;;4937045;29;21492;-74
2024/01/23 05:25:27;;;;;;;28.98;4.05;;;6.70;99.90;;;;;;4952814;29;20039;-76
2024/01/23 05:27:53;;;;;;;27.02;4.50;;;6.70;99.90;;;;;;4951618;28;20026;-74
2024/01/23 05:30:19;;;;;;;34.40;4.13;;;6.70;99.90;;;;;;4954422;28;20020;-75
2024/01/23 05:32:45;;;;;;;27.35;3.50;;;6.70;99.90;;;;;;4953400;28;20051;-75
2024/01/23 05:35:11;;;;;;;29.15;4.30;;;6.80;99.90;;;;;;4952187;28;20031;-74
2024/01/23 05:37:36;;;;;;;29.02;4.20;;;6.70;99.90;;;;;;4951381;28;20044;-73
2024/01/23 05:40:03;;;;;;;32.60;4.40;;;6.70;99.90;;;;;;4953586;28;20098;-72
2024/01/23 05:42:29;;;;;;;29.73;4.43;;;6.80;99.90;;;;;;4950589;28;20071;-74
2024/01/23 05:44:56;;;;;;;25.52;4.15;;;6.80;99.90;;;;;;4937406;29;20626;-72
2024/01/23 05:47:21;;;;;;;29.55;4.65;;;6.80;99.90;;;;;;4951728;28;20031;-78
2024/01/23 05:49:47;;;;;;;33.97;4.63;;;6.70;99.90;;;;;;4935119;29;20107;-74
2024/01/23 05:52:13;;;;;;;34.47;4.57;;;6.80;99.90;;;;;;4936419;29;20042;-73
2024/01/23 05:54:41;;;;;;;35.00;4.47;;;6.70;99.90;;;;;;4936297;29;20554;-74
2024/01/23 05:57:07;;;;;;;29.98;4.60;;;6.70;99.90;;;;;;4953500;28;20019;-73
2024/01/23 05:59:33;;;;;;;30.25;4.82;;;6.70;99.90;;;;;;4936994;28;20051;-76
2024/01/23 06:01:58;;;;;;;38.22;4.68;;;6.70;99.90;;;;;;4949143;28;20092;-72
2024/01/23 06:04:24;;;;;;;34.33;5.10;;;6.70;99.90;;;;;;4952330;28;20043;-73
2024/01/23 06:06:49;;;;;;;37.55;5.70;;;6.80;99.90;;;;;;4951929;28;20075;-74
2024/01/23 06:09:15;;;;;;;26.95;3.95;;;6.80;99.90;;;;;;4934850;29;20058;-75
2024/01/23 06:11:41;;;;;;;33.83;4.72;;;6.80;99.90;;;;;;4954043;28;20070;-75
2024/01/23 06:14:06;;;;;;;41.35;4.82;;;6.80;99.90;;;;;;4951803;28;20440;-78
2024/01/23 06:16:32;;;;;;;28.75;4.60;;;6.80;99.90;;;;;;4952690;28;20032;-77
2024/01/23 06:18:57;;;;;;;33.42;4.25;;;6.80;99.90;;;;;;4951988;28;20024;-72
2024/01/23 06:21:23;;;;;;;35.60;4.93;;;6.80;99.90;;;;;;4953478;28;20028;-73
2024/01/23 06:23:49;;;;;;;34.33;4.70;;;6.80;99.90;;;;;;4953511;29;20031;-75
2024/01/23 06:26:15;;;;;;;32.03;4.53;;;6.80;99.90;;;;;;4933675;29;20028;-75
2024/01/23 06:28:40;;;;;;;25.20;4.35;;;6.80;99.90;;;;;;4935123;29;20034;-73
2024/01/23 06:31:06;;;;;;;34.78;4.80;;;6.80;99.90;;;;;;4953239;28;20035;-76
2024/01/23 06:33:31;;;;;;;37.55;5.22;;;6.80;99.90;;;;;;4937555;28;20031;-72
2024/01/23 06:35:57;;;;;;;29.20;3.97;;;6.80;99.90;;;;;;4938964;29;20368;-75
2024/01/23 06:38:23;;;;;;;30.38;4.18;;;6.80;99.90;;;;;;4940253;29;20118;-75
2024/01/23 06:40:48;;;;;;;38.47;5.28;;;6.90;99.90;;;;;;4953098;28;20024;-72
2024/01/23 06:43:14;;;;;;;39.60;5.20;;;6.80;99.90;;;;;;4953619;28;20055;-73
2024/01/23 06:45:39;;;;;;;31.10;4.50;;;6.80;99.90;;;;;;4936686;29;20023;-75
2024/01/23 06:48:05;;;;;;;31.63;4.68;;;6.80;99.90;;;;;;4937195;28;20166;-72
2024/01/23 06:50:31;;;;;;;39.15;5.03;;;6.80;99.90;;;;;;4955950;28;20047;-72
2024/01/23 06:52:56;;;;;;;32.78;5.07;;;6.80;99.90;;;;;;4938689;29;20023;-74
2024/01/23 06:55:22;;;;;;;40.53;4.88;;;6.80;99.90;;;;;;4956442;28;20034;-73
2024/01/23 06:57:47;;;;;;;43.80;5.50;;;6.80;99.90;;;;;;4956407;28;20087;-73
2024/01/23 07:00:13;;;;;;;34.05;4.45;;;6.80;99.90;;;;;;4939323;29;20035;-72
2024/01/23 07:02:39;;;;;;;46.42;5.57;;;6.80;99.90;;;;;;4955724;28;20468;-72
2024/01/23 07:05:05;;;;;;;29.48;4.63;;;6.90;99.90;;;;;;4955281;28;20034;-73
2024/01/23 07:07:30;;;;;;;42.45;5.45;;;6.90;99.90;;;;;;4954152;28;20056;-77
2024/01/23 07:09:56;;;;;;;45.30;4.97;;;6.90;99.90;;;;;;4934714;29;20024;-77
2024/01/23 07:12:22;;;;;;;40.25;5.85;;;6.90;99.90;;;;;;4934838;29;20060;-75
2024/01/23 07:14:47;;;;;;;25.92;4.07;;;6.90;99.90;;;;;;4931234;29;20043;-75
2024/01/23 07:17:14;;;;;;;30.00;5.07;;;6.90;99.90;;;;;;4950260;28;20031;-73
2024/01/23 07:19:41;;;;;;;37.65;5.45;;;6.90;99.90;;;;;;4951286;28;20132;-75
2024/01/23 07:22:06;;;;;;;41.55;5.80;;;7.00;99.90;;;;;;4951020;28;20476;-73
2024/01/23 07:24:32;;;;;;;41.80;5.22;;;7.00;99.90;;;;;;4936863;28;20043;-74
2024/01/23 07:26:57;;;;;;;37.05;6.30;;;7.00;99.90;;;;;;4953483;28;20035;-72
2024/01/23 07:29:23;;;;;;;40.05;5.28;;;7.00;99.90;;;;;;4954164;29;20027;-73
2024/01/23 07:31:49;;;;;;;44.72;5.63;;;7.00;99.90;;;;;;4937673;29;20451;-73
2024/01/23 07:34:14;;;;;;;33.03;5.13;;;7.00;99.90;;;;;;4954392;28;20032;-75
2024/01/23 07:36:40;;;;;;;37.17;5.93;;;7.00;99.90;;;;;;4938800;29;20039;-72
2024/01/23 07:39:06;;;;;;;42.83;5.80;;;7.00;99.90;;;;;;4954007;28;20028;-73
2024/01/23 07:41:31;;;;;;;40.63;5.10;;;7.00;99.90;;;;;;4956235;29;20668;-74
2024/01/23 07:43:57;;;;;;;34.05;5.22;;;7.00;99.90;;;;;;4937121;29;20042;-74
2024/01/23 07:46:23;;;;;;;39.70;5.32;;;7.10;99.90;;;;;;4954061;28;20035;-75
2024/01/23 07:48:49;;;;;;;36.05;4.75;;;7.00;99.90;;;;;;4954604;28;20075;-74
2024/01/23 07:51:14;;;;;;;44.63;5.25;;;7.10;99.90;;;;;;4938892;28;20083;-70
2024/01/23 07:53:43;;;;;;;41.30;5.43;;;7.00;99.90;;;;;;4936233;29;20028;-76
2024/01/23 07:56:08;;;;;;;39.90;5.20;;;7.10;99.90;;;;;;4938090;29;20050;-73
2024/01/23 07:58:34;;;;;;;37.47;5.32;;;7.10;99.90;;;;;;4955050;28;20027;-75
2024/01/23 08:01:00;;;;;;;36.78;5.47;;;7.10;99.90;;;;;;4955010;28;20536;-75
2024/01/23 08:03:25;;;;;;;39.38;5.93;;;7.10;99.90;;;;;;4952926;28;21710;-74
2024/01/23 08:05:51;;;;;;;40.70;5.97;;;7.10;99.90;;;;;;4938875;29;20104;-74
2024/01/23 08:08:16;;;;;;;40.90;5.45;;;7.10;99.90;;;;;;4954751;29;20099;-72
2024/01/23 08:10:42;;;;;;;43.03;5.85;;;7.20;99.90;;;;;;4954518;28;20043;-72
2024/01/23 08:13:07;;;;;;;41.95;6.00;;;7.20;99.90;;;;;;4937117;29;20034;-73
2024/01/23 08:15:34;;;;;;;38.83;5.85;;;7.20;99.90;;;;;;4951951;28;20035;-72
2024/01/23 08:18:03;;;;;;;46.40;6.43;;;7.20;99.90;;;;;;4953225;29;20051;-74
2024/01/23 08:20:29;;;;;;;37.00;5.80;;;7.20;99.90;;;;;;4950412;29;20024;-75
2024/01/23 08:22:55;;;;;;;45.47;6.28;;;7.30;99.90;;;;;;4934606;29;20429;-74
2024/01/23 08:25:20;;;;;;;37.88;5.30;;;7.30;99.90;;;;;;4954029;29;20043;-73
2024/01/23 08:27:46;;;;;;;46.63;5.60;;;7.30;99.90;;;;;;4950457;29;20045;-76
2024/01/23 08:30:12;;;;;;;44.53;6.70;;;7.30;99.90;;;;;;4930684;29;20452;-73
2024/01/23 08:32:37;;;;;;;44.60;6.47;;;7.30;99.90;;;;;;4935079;29;20031;-74
2024/01/23 08:35:03;;;;;;;45.80;6.07;;;7.30;99.90;;;;;;4948183;28;20066;-72
2024/01/23 08:37:29;;;;;;;50.67;6.85;;;7.40;99.90;;;;;;4950439;28;20362;-78
2024/01/23 08:39:54;;;;;;;42.47;6.40;;;7.40;99.90;;;;;;4954183;28;20031;-72
2024/01/23 08:42:20;;;;;;;35.17;5.00;;;7.40;99.90;;;;;;4949294;28;20031;-72
2024/01/23 08:44:49;;;;;;;44.00;6.38;;;7.40;99.90;;;;;;4951598;28;21145;-72
2024/01/23 08:47:14;;;;;;;47.13;6.40;;;7.40;99.90;;;;;;4935632;29;20031;-70
2024/01/23 08:49:40;;;;;;;40.55;7.32;;;7.40;99.90;;;;;;4935678;28;20082;-73
2024/01/23 08:52:05;;;;;;;48.42;6.32;;;7.40;99.90;;;;;;4952422;28;20043;-73
2024/01/23 08:54:31;;;;;;;43.95;6.10;;;7.40;99.90;;;;;;4954789;28;20151;-72
2024/01/23 08:56:57;;;;;;;39.55;6.10;;;7.50;99.90;;;;;;4953568;29;20074;-72
2024/01/23 08:59:24;;;;;;;40.03;5.70;;;7.60;99.90;;;;;;4954536;28;20048;-73
2024/01/23 09:01:49;;;;;;;50.70;7.47;;;7.60;99.90;;;;;;4937801;29;20066;-73
2024/01/23 09:04:15;;;;;;;45.67;6.57;;;7.60;99.90;;;;;;4954769;29;20044;-71
2024/01/23 09:06:40;;;;;;;39.60;6.03;;;7.60;99.90;;;;;;4953906;28;20075;-73
2024/01/23 09:09:06;;;;;;;48.95;6.82;;;7.60;99.90;;;;;;4936793;29;20024;-71
2024/01/23 09:11:32;;;;;;;54.95;6.57;;;7.60;99.90;;;;;;4954587;29;20055;-72
2024/01/23 09:13:58;;;;;;;50.88;6.97;;;7.60;99.90;;;;;;4936830;29;20030;-73
2024/01/23 09:16:24;;;;;;;55.90;7.43;;;7.70;99.90;;;;;;4937936;29;20028;-76
2024/01/23 09:18:50;;;;;;;44.33;6.50;;;7.60;99.90;;;;;;4937618;29;20089;-72
2024/01/23 09:21:15;;;;;;;45.88;6.63;;;7.70;99.90;;;;;;4936378;29;20058;-74
2024/01/23 09:23:41;;;;;;;49.05;6.40;;;7.70;99.90;;;;;;4954473;28;20075;-76
2024/01/23 09:26:06;;;;;;;52.20;6.93;;;7.70;99.90;;;;;;4954230;28;20036;-74
2024/01/23 09:28:32;;;;;;;45.05;6.57;;;7.80;99.90;;;;;;4954312;28;20024;-72
2024/01/23 09:30:57;;;;;;;57.50;7.28;;;7.70;99.90;;;;;;4937439;29;20036;-72
2024/01/23 09:33:23;;;;;;;44.58;6.18;;;7.70;99.90;;;;;;4954385;28;20042;-74
2024/01/23 09:35:49;;;;;;;44.33;6.07;;;7.70;99.90;;;;;;4954331;28;20031;-74
2024/01/23 09:38:14;;;;;;;46.35;6.40;;;7.70;99.90;;;;;;4953972;28;20607;-74
2024/01/23 09:40:48;;;;;;;48.20;7.00;;;7.70;99.90;;;;;;4953933;28;20038;-74
2024/01/23 09:43:14;;;;;;;49.20;6.72;;;7.70;99.90;;;;;;4954181;28;20020;-73
2024/01/23 09:45:41;;;;;;;52.25;7.43;;;7.70;99.90;;;;;;4954655;28;20071;-73
2024/01/23 09:48:07;;;;;;;44.05;6.55;;;7.70;99.90;;;;;;4953598;28;20064;-74
2024/01/23 09:50:35;;;;;;;47.28;6.70;;;7.70;99.90;;;;;;4953952;28;20015;-72
2024/01/23 09:53:03;;;;;;;48.80;7.47;;;7.70;99.90;;;;;;4937437;29;20511;-76
2024/01/23 09:55:29;;;;;;;51.67;7.88;;;7.70;99.90;;;;;;4936392;29;20030;-74
2024/01/23 09:57:55;;;;;;;44.65;7.43;;;7.70;99.90;;;;;;4936721;29;20032;-73
2024/01/23 10:00:21;;;;;;;47.70;7.53;;;7.70;99.90;;;;;;4953579;28;20106;-74
2024/01/23 10:02:46;;;;;;;52.75;6.90;;;7.70;99.90;;;;;;4953985;28;20032;-73
2024/01/23 10:05:15;;;;;;;55.78;7.70;;;7.60;99.90;;;;;;4936418;28;20024;-75
2024/01/23 10:07:42;;;;;;;50.72;6.55;;;7.60;99.90;;;;;;4955938;28;20043;-73
2024/01/23 10:10:17;;;;;;;48.67;6.93;;;7.70;99.90;;;;;;4957368;28;20027;-73
2024/01/23 10:12:45;;;;;;;50.53;7.63;;;7.70;99.90;;;;;;4958154;28;20035;-72
2024/01/23 10:15:16;;;;;;;39.40;5.75;;;7.70;99.90;;;;;;4957373;28;20491;-73
2024/01/23 10:17:43;;;;;;;40.53;6.65;;;7.70;99.90;;;;;;4940085;29;20030;-78
2024/01/23 10:20:09;;;;;;;38.70;5.72;;;7.80;99.90;;;;;;4940269;28;20019;-71
2024/01/23 10:22:35;;;;;;;52.70;6.05;;;8.00;99.90;;;;;;4957173;29;20134;-70
2024/01/23 10:25:13;;;;;;;44.17;5.90;;;8.20;99.90;;;;;;4940535;29;20099;-73
2024/01/23 10:27:39;;;;;;;45.58;7.75;;;8.40;99.90;;;;;;4957554;28;20034;-74
2024/01/23 10:30:06;;;;;;;43.75;6.60;;;8.50;99.90;;;;;;4939700;29;20024;-71
2024/01/23 10:32:32;;;;;;;48.90;7.03;;;8.50;99.90;;;;;;4940384;28;20036;-72
2024/01/23 10:34:57;;;;;;;51.60;6.97;;;8.50;99.90;;;;;;4939883;29;20035;-72
2024/01/23 10:37:23;;;;;;;43.03;6.07;;;8.60;99.90;;;;;;4956802;28;20075;-74
2024/01/23 10:39:51;;;;;;;44.95;6.50;;;8.50;99.90;;;;;;4957381;28;20055;-73
2024/01/23 10:42:17;;;;;;;51.03;7.05;;;8.40;99.90;;;;;;4939934;28;20039;-74
2024/01/23 10:44:44;;;;;;;53.58;6.75;;;8.30;99.90;;;;;;4956775;28;20059;-76
2024/01/23 10:47:12;;;;;;;44.28;6.88;;;8.20;99.90;;;;;;4956952;28;20036;-77
2024/01/23 10:49:38;;;;;;;57.58;6.82;;;8.20;99.90;;;;;;4956387;28;20107;-74
2024/01/23 10:52:06;;;;;;;52.13;7.18;;;8.20;99.90;;;;;;4956465;28;20078;-74
2024/01/23 10:54:36;;;;;;;45.22;6.30;;;8.30;99.90;;;;;;4957639;28;20480;-75
2024/01/23 10:57:07;;;;;;;44.03;6.38;;;8.30;99.90;;;;;;4939568;28;20024;-78
2024/01/23 10:59:35;;;;;;;50.70;7.65;;;8.40;99.90;;;;;;4940221;29;20019;-70
2024/01/23 11:02:08;;;;;;;40.55;6.88;;;8.30;99.90;;;;;;4956934;28;20015;-70
2024/01/23 11:04:33;;;;;;;49.08;6.88;;;8.30;99.90;;;;;;4939850;29;20055;-74
2024/01/23 11:07:16;;;;;;;40.58;6.57;;;8.30;99.90;;;;;;4938800;29;20047;-76
2024/01/23 11:09:47;;;;;;;47.85;6.45;;;8.20;99.90;;;;;;4956454;29;20051;-73
2024/01/23 11:12:50;;;;;;;43.50;6.07;;;8.10;99.90;;;;;;4939207;28;20054;-74
2024/01/23 11:15:17;;;;;;;52.17;6.47;;;8.10;99.90;;;;;;4936541;28;20046;-76
2024/01/23 11:17:43;;;;;;;43.35;7.50;;;8.10;99.90;;;;;;4939151;29;20480;-76
2024/01/23 11:20:13;;;;;;;54.80;6.88;;;8.10;99.90;;;;;;4938304;28;20028;-70
2024/01/23 11:22:39;;;;;;;44.53;6.82;;;8.10;99.90;;;;;;4956446;29;20028;-72
2024/01/23 11:25:05;;;;;;;52.17;7.93;;;8.10;99.90;;;;;;4938606;29;20030;-73
2024/01/23 11:27:33;;;;;;;37.38;6.78;;;8.20;99.90;;;;;;4938056;29;20035;-73
2024/01/23 11:30:04;;;;;;;50.60;6.70;;;8.20;99.90;;;;;;4954172;28;20055;-74
2024/01/23 11:32:30;;;;;;;48.08;7.45;;;8.20;99.90;;;;;;4951532;29;20043;-75
2024/01/23 11:35:04;;;;;;;48.72;7.03;;;8.20;99.90;;;;;;4939175;29;20042;-76
2024/01/23 11:37:32;;;;;;;44.67;5.72;;;8.20;99.90;;;;;;4952118;29;20027;-74
2024/01/23 11:40:05;;;;;;;51.53;6.57;;;8.20;99.90;;;;;;4954185;28;20100;-71
2024/01/23 11:42:41;;;;;;;50.30;6.22;;;8.10;99.90;;;;;;4954459;29;20027;-72
2024/01/23 11:45:29;;;;;;;41.50;6.28;;;8.10;99.90;;;;;;4951932;29;20119;-73
2024/01/23 11:47:56;;;;;;;40.45;6.35;;;8.20;99.90;;;;;;4936531;29;20123;-73
2024/01/23 11:50:23;;;;;;;41.28;6.50;;;8.20;99.90;;;;;;4936720;29;20031;-71
2024/01/23 11:52:54;;;;;;;45.42;6.10;;;8.10;99.90;;;;;;4952551;28;20500;-76
2024/01/23 11:55:21;;;;;;;45.67;6.80;;;8.10;99.90;;;;;;4938039;29;20031;-75
2024/01/23 11:57:48;;;;;;;51.95;6.18;;;8.10;99.90;;;;;;4954084;28;20046;-75
2024/01/23 12:00:14;;;;;;;47.10;6.35;;;8.10;99.90;;;;;;4955629;29;20102;-76
2024/01/23 12:02:42;;;;;;;39.13;5.95;;;8.00;99.90;;;;;;4936473;29;20050;-75
2024/01/23 12:05:07;;;;;;;45.97;6.93;;;8.00;99.90;;;;;;4936266;29;20123;-74
2024/01/23 12:07:37;;;;;;;37.63;5.63;;;8.00;99.90;;;;;;4955284;28;20075;-74
2024/01/23 12:10:04;;;;;;;41.50;6.60;;;8.10;99.90;;;;;;4938270;29;20146;-74
2024/01/23 12:12:30;;;;;;;33.33;5.40;;;8.10;99.90;;;;;;4955170;29;20038;-74
2024/01/23 12:14:56;;;;;;;43.75;6.22;;;8.10;99.90;;;;;;4955341;28;20020;-72
2024/01/23 12:17:22;;;;;;;40.92;5.88;;;8.10;99.90;;;;;;4955579;28;20047;-73
2024/01/23 12:19:48;;;;;;;47.33;6.22;;;8.20;99.90;;;;;;4937920;29;20483;-76
2024/01/23 12:22:15;;;;;;;45.83;6.85;;;8.10;99.90;;;;;;4933811;29;20392;-74
2024/01/23 12:24:42;;;;;;;37.53;5.75;;;8.20;99.90;;;;;;4950418;28;20028;-75
2024/01/23 12:27:11;;;;;;;31.70;5.03;;;8.20;99.90;;;;;;4950201;29;20078;-74
2024/01/23 12:29:38;;;;;;;34.33;6.15;;;8.20;99.90;;;;;;4935231;28;20043;-76
2024/01/23 12:32:04;;;;;;;49.35;6.50;;;8.20;99.90;;;;;;4936502;29;20039;-73
2024/01/23 12:34:33;;;;;;;39.47;5.93;;;8.20;99.90;;;;;;4936835;29;20487;-75
2024/01/23 12:37:00;;;;;;;52.13;6.93;;;8.20;99.90;;;;;;4938083;29;20122;-73
2024/01/23 12:39:28;;;;;;;45.78;5.93;;;8.20;99.90;;;;;;4934884;29;20105;-76
2024/01/23 12:41:54;;;;;;;48.58;6.45;;;8.20;99.90;;;;;;4935707;29;20035;-78
2024/01/23 12:44:19;;;;;;;50.30;7.00;;;8.30;99.90;;;;;;4935803;29;20381;-76
2024/01/23 12:46:45;;;;;;;37.72;5.05;;;8.40;99.90;;;;;;4953930;28;20083;-78